Crestline, California
Current Conditions -  °F | °C
As of 8:53 PM on Thursday 23 Oct 2014 (Local Time) from KSBD Reporting Station
Clear Clear  
Wind Chill: 73°   Ceiling: Unl
Heat Index: 73°   Visibility: 10mi
Dew Point: 39°   Wind: 0mph
Humidity: 29%   Direction: NA
Pressure: 29.97"   Gusts: NA
Location:  34.24°N, 117.28°W
Report Text: KSBD 240353Z 00000KT 10SM SKC 23/04 A2997
Loading
Personal Weather Stations






























Interactive Weather Map
Tropical Storm Tracking
New forecast layout! Learn more

10-Day Weather Forecast

Advertisements
Track Severe Weather on mobile